sensor_id;sensor_type;location;lat;lon;timestamp;pressure;altitude;pressure_sealevel;temperature;humidity
76726;BME280;65651;53.154;17.916;2023-02-03T00:00:39;101582.82;;;-2.96;83.68
76726;BME280;65651;53.154;17.916;2023-02-03T00:03:27;101579.83;;;-2.96;83.58
76726;BME280;65651;53.154;17.916;2023-02-03T00:05:55;101575.62;;;-2.97;83.62
76726;BME280;65651;53.154;17.916;2023-02-03T00:08:22;101567.21;;;-2.97;83.69
76726;BME280;65651;53.154;17.916;2023-02-03T00:10:50;101566.02;;;-2.99;83.65
76726;BME280;65651;53.154;17.916;2023-02-03T00:13:17;101562.38;;;-3.01;83.64
76726;BME280;65651;53.154;17.916;2023-02-03T00:15:45;101559.09;;;-3.03;83.67
76726;BME280;65651;53.154;17.916;2023-02-03T00:18:12;101566.36;;;-3.05;83.70
76726;BME280;65651;53.154;17.916;2023-02-03T00:20:40;101564.30;;;-3.07;83.76
76726;BME280;65651;53.154;17.916;2023-02-03T00:23:09;101560.16;;;-3.11;83.72
76726;BME280;65651;53.154;17.916;2023-02-03T00:25:37;101561.10;;;-3.14;83.76
76726;BME280;65651;53.154;17.916;2023-02-03T00:28:05;101559.06;;;-3.16;83.69
76726;BME280;65651;53.154;17.916;2023-02-03T00:30:34;101557.89;;;-3.19;83.72
76726;BME280;65651;53.154;17.916;2023-02-03T00:33:02;101560.04;;;-3.21;83.78
76726;BME280;65651;53.154;17.916;2023-02-03T00:35:30;101559.36;;;-3.22;83.71
76726;BME280;65651;53.154;17.916;2023-02-03T00:37:58;101558.68;;;-3.22;83.78
76726;BME280;65651;53.154;17.916;2023-02-03T00:40:26;101559.77;;;-3.24;83.78
76726;BME280;65651;53.154;17.916;2023-02-03T00:42:53;101557.86;;;-3.26;83.82
76726;BME280;65651;53.154;17.916;2023-02-03T00:45:21;101552.95;;;-3.26;83.89
76726;BME280;65651;53.154;17.916;2023-02-03T00:47:50;101549.11;;;-3.27;83.86
76726;BME280;65651;53.154;17.916;2023-02-03T00:50:17;101552.48;;;-3.28;83.84
76726;BME280;65651;53.154;17.916;2023-02-03T00:52:45;101546.76;;;-3.30;83.98
76726;BME280;65651;53.154;17.916;2023-02-03T00:55:12;101540.29;;;-3.32;83.98
76726;BME280;65651;53.154;17.916;2023-02-03T00:57:39;101540.85;;;-3.34;83.93
76726;BME280;65651;53.154;17.916;2023-02-03T01:00:08;101537.52;;;-3.34;83.87
76726;BME280;65651;53.154;17.916;2023-02-03T01:02:36;101538.27;;;-3.35;84.00
76726;BME280;65651;53.154;17.916;2023-02-03T01:05:04;101534.63;;;-3.37;83.99
76726;BME280;65651;53.154;17.916;2023-02-03T01:07:33;101538.48;;;-3.37;84.06
76726;BME280;65651;53.154;17.916;2023-02-03T01:10:00;101538.14;;;-3.38;84.04
76726;BME280;65651;53.154;17.916;2023-02-03T01:12:29;101529.38;;;-3.38;84.07
76726;BME280;65651;53.154;17.916;2023-02-03T01:14:57;101529.02;;;-3.38;84.15
76726;BME280;65651;53.154;17.916;2023-02-03T01:17:25;101529.89;;;-3.37;84.12
76726;BME280;65651;53.154;17.916;2023-02-03T01:19:52;101524.42;;;-3.36;84.22
76726;BME280;65651;53.154;17.916;2023-02-03T01:22:20;101512.42;;;-3.34;84.17
76726;BME280;65651;53.154;17.916;2023-02-03T01:24:47;101500.98;;;-3.32;84.26
76726;BME280;65651;53.154;17.916;2023-02-03T01:27:17;101491.13;;;-3.31;84.20
76726;BME280;65651;53.154;17.916;2023-02-03T01:29:44;101484.23;;;-3.29;84.20
76726;BME280;65651;53.154;17.916;2023-02-03T01:32:12;101470.99;;;-3.27;84.33
76726;BME280;65651;53.154;17.916;2023-02-03T01:34:39;101465.52;;;-3.25;84.27
76726;BME280;65651;53.154;17.916;2023-02-03T01:37:06;101464.92;;;-3.22;84.22
76726;BME280;65651;53.154;17.916;2023-02-03T01:39:34;101461.69;;;-3.19;84.21
76726;BME280;65651;53.154;17.916;2023-02-03T01:42:02;101457.55;;;-3.15;84.34
76726;BME280;65651;53.154;17.916;2023-02-03T01:44:39;101454.88;;;-3.14;84.34
76726;BME280;65651;53.154;17.916;2023-02-03T01:47:28;101450.64;;;-3.12;84.35
76726;BME280;65651;53.154;17.916;2023-02-03T01:50:16;101460.97;;;-3.11;84.30
76726;BME280;65651;53.154;17.916;2023-02-03T01:52:51;101461.27;;;-3.10;84.21
76726;BME280;65651;53.154;17.916;2023-02-03T01:55:25;101463.17;;;-3.08;84.39
76726;BME280;65651;53.154;17.916;2023-02-03T01:58:24;101461.75;;;-3.08;84.29
76726;BME280;65651;53.154;17.916;2023-02-03T02:00:53;101454.54;;;-3.07;84.36
76726;BME280;65651;53.154;17.916;2023-02-03T02:03:26;101446.11;;;-3.07;84.35
76726;BME280;65651;53.154;17.916;2023-02-03T02:06:01;101447.08;;;-3.04;84.44
76726;BME280;65651;53.154;17.916;2023-02-03T02:08:31;101436.11;;;-3.00;84.39
76726;BME280;65651;53.154;17.916;2023-02-03T02:11:00;101418.60;;;-2.96;84.35
76726;BME280;65651;53.154;17.916;2023-02-03T02:13:32;101407.64;;;-2.93;84.46
76726;BME280;65651;53.154;17.916;2023-02-03T02:16:34;101402.62;;;-2.89;84.47
76726;BME280;65651;53.154;17.916;2023-02-03T02:19:33;101401.23;;;-2.84;84.52
76726;BME280;65651;53.154;17.916;2023-02-03T02:39:15;101354.15;;;-2.65;84.50
76726;BME280;65651;53.154;17.916;2023-02-03T02:41:55;101349.25;;;-2.66;84.48
76726;BME280;65651;53.154;17.916;2023-02-03T02:44:51;101346.29;;;-2.66;84.55
76726;BME280;65651;53.154;17.916;2023-02-03T02:47:21;101343.70;;;-2.68;84.58
76726;BME280;65651;53.154;17.916;2023-02-03T02:52:38;101341.08;;;-2.68;84.64
76726;BME280;65651;53.154;17.916;2023-02-03T02:55:20;101333.00;;;-2.68;84.60
76726;BME280;65651;53.154;17.916;2023-02-03T02:57:57;101337.34;;;-2.67;84.59
76726;BME280;65651;53.154;17.916;2023-02-03T03:00:30;101336.91;;;-2.64;84.65
76726;BME280;65651;53.154;17.916;2023-02-03T03:03:11;101337.34;;;-2.61;84.68
76726;BME280;65651;53.154;17.916;2023-02-03T03:05:40;101342.17;;;-2.58;84.64
76726;BME280;65651;53.154;17.916;2023-02-03T03:08:09;101342.23;;;-2.54;84.70
76726;BME280;65651;53.154;17.916;2023-02-03T03:10:40;101340.21;;;-2.51;84.70
76726;BME280;65651;53.154;17.916;2023-02-03T03:13:12;101337.80;;;-2.47;84.78
76726;BME280;65651;53.154;17.916;2023-02-03T03:15:47;101340.55;;;-2.45;84.66
76726;BME280;65651;53.154;17.916;2023-02-03T03:18:23;101334.81;;;-2.41;84.72
76726;BME280;65651;53.154;17.916;2023-02-03T03:20:59;101322.73;;;-2.36;84.68
76726;BME280;65651;53.154;17.916;2023-02-03T03:23:36;101319.48;;;-2.34;84.86
76726;BME280;65651;53.154;17.916;2023-02-03T03:26:10;101319.23;;;-2.31;84.67
76726;BME280;65651;53.154;17.916;2023-02-03T03:29:12;101317.90;;;-2.28;84.71
76726;BME280;65651;53.154;17.916;2023-02-03T03:31:42;101314.52;;;-2.27;84.70
76726;BME280;65651;53.154;17.916;2023-02-03T03:34:11;101307.85;;;-2.26;84.77
76726;BME280;65651;53.154;17.916;2023-02-03T03:42:19;101290.65;;;-2.17;84.72
76726;BME280;65651;53.154;17.916;2023-02-03T03:45:12;101287.73;;;-2.13;84.70
76726;BME280;65651;53.154;17.916;2023-02-03T03:47:50;101275.91;;;-2.07;84.79
76726;BME280;65651;53.154;17.916;2023-02-03T03:50:26;101264.81;;;-2.06;84.77
76726;BME280;65651;53.154;17.916;2023-02-03T03:52:57;101262.42;;;-2.03;84.70
76726;BME280;65651;53.154;17.916;2023-02-03T03:55:29;101256.55;;;-2.01;84.87
76726;BME280;65651;53.154;17.916;2023-02-03T03:58:13;101255.31;;;-2.01;84.77
76726;BME280;65651;53.154;17.916;2023-02-03T04:00:47;101255.69;;;-2.01;84.80
76726;BME280;65651;53.154;17.916;2023-02-03T04:03:20;101253.78;;;-2.02;84.80
76726;BME280;65651;53.154;17.916;2023-02-03T04:05:49;101247.10;;;-2.02;84.65
76726;BME280;65651;53.154;17.916;2023-02-03T04:08:17;101236.23;;;-2.04;84.80
76726;BME280;65651;53.154;17.916;2023-02-03T04:10:45;101234.49;;;-2.05;84.73
76726;BME280;65651;53.154;17.916;2023-02-03T04:13:12;101232.81;;;-2.07;84.93
76726;BME280;65651;53.154;17.916;2023-02-03T04:15:41;101225.95;;;-2.07;84.63
76726;BME280;65651;53.154;17.916;2023-02-03T04:18:12;101222.08;;;-2.06;84.84
76726;BME280;65651;53.154;17.916;2023-02-03T04:20:40;101218.17;;;-2.05;84.83
76726;BME280;65651;53.154;17.916;2023-02-03T04:23:08;101215.16;;;-2.05;84.83
76726;BME280;65651;53.154;17.916;2023-02-03T04:25:35;101212.63;;;-2.03;85.04
76726;BME280;65651;53.154;17.916;2023-02-03T04:28:03;101210.05;;;-2.00;84.82
76726;BME280;65651;53.154;17.916;2023-02-03T04:30:32;101209.44;;;-1.97;84.90
76726;BME280;65651;53.154;17.916;2023-02-03T04:33:00;101206.36;;;-1.94;84.82
76726;BME280;65651;53.154;17.916;2023-02-03T04:35:28;101202.59;;;-1.92;84.86
76726;BME280;65651;53.154;17.916;2023-02-03T04:37:55;101198.84;;;-1.91;84.73
76726;BME280;65651;53.154;17.916;2023-02-03T04:40:23;101199.11;;;-1.87;84.78
76726;BME280;65651;53.154;17.916;2023-02-03T04:42:50;101192.88;;;-1.86;84.94
76726;BME280;65651;53.154;17.916;2023-02-03T04:45:18;101186.13;;;-1.84;84.88
76726;BME280;65651;53.154;17.916;2023-02-03T04:47:50;101186.51;;;-1.85;84.91
76726;BME280;65651;53.154;17.916;2023-02-03T04:50:19;101189.13;;;-1.84;84.93
76726;BME280;65651;53.154;17.916;2023-02-03T04:52:46;101184.02;;;-1.84;84.88
76726;BME280;65651;53.154;17.916;2023-02-03T04:55:22;101179.64;;;-1.84;84.69
76726;BME280;65651;53.154;17.916;2023-02-03T04:57:58;101176.82;;;-1.85;84.85
76726;BME280;65651;53.154;17.916;2023-02-03T05:00:28;101175.91;;;-1.83;84.87
76726;BME280;65651;53.154;17.916;2023-02-03T05:02:57;101170.69;;;-1.80;84.95
76726;BME280;65651;53.154;17.916;2023-02-03T05:05:24;101165.89;;;-1.78;84.92
76726;BME280;65651;53.154;17.916;2023-02-03T05:07:52;101153.98;;;-1.75;84.85
76726;BME280;65651;53.154;17.916;2023-02-03T05:10:23;101153.66;;;-1.71;84.79
76726;BME280;65651;53.154;17.916;2023-02-03T05:12:50;101150.98;;;-1.70;84.76
76726;BME280;65651;53.154;17.916;2023-02-03T05:15:18;101145.62;;;-1.68;84.74
76726;BME280;65651;53.154;17.916;2023-02-03T05:17:45;101138.88;;;-1.67;84.84
76726;BME280;65651;53.154;17.916;2023-02-03T05:20:13;101128.98;;;-1.65;84.76
76726;BME280;65651;53.154;17.916;2023-02-03T05:22:41;101115.23;;;-1.65;84.86
76726;BME280;65651;53.154;17.916;2023-02-03T05:25:11;101103.30;;;-1.61;84.85
76726;BME280;65651;53.154;17.916;2023-02-03T05:27:39;101097.61;;;-1.59;84.79
76726;BME280;65651;53.154;17.916;2023-02-03T05:30:09;101091.98;;;-1.59;84.74
76726;BME280;65651;53.154;17.916;2023-02-03T05:32:37;101083.57;;;-1.56;84.68
76726;BME280;65651;53.154;17.916;2023-02-03T05:35:04;101078.21;;;-1.54;84.77
76726;BME280;65651;53.154;17.916;2023-02-03T05:37:31;101077.15;;;-1.54;84.80
76726;BME280;65651;53.154;17.916;2023-02-03T05:39:59;101071.21;;;-1.55;84.83
76726;BME280;65651;53.154;17.916;2023-02-03T05:42:54;101061.27;;;-1.57;84.87
76726;BME280;65651;53.154;17.916;2023-02-03T05:45:21;101048.60;;;-1.57;84.74
76726;BME280;65651;53.154;17.916;2023-02-03T05:47:49;101044.81;;;-1.55;84.65
76726;BME280;65651;53.154;17.916;2023-02-03T05:50:17;101040.71;;;-1.54;84.84
76726;BME280;65651;53.154;17.916;2023-02-03T05:52:45;101029.60;;;-1.53;84.81
76726;BME280;65651;53.154;17.916;2023-02-03T05:55:12;101021.65;;;-1.52;84.76
76726;BME280;65651;53.154;17.916;2023-02-03T05:57:40;101013.31;;;-1.50;84.70
76726;BME280;65651;53.154;17.916;2023-02-03T06:00:08;101002.79;;;-1.47;84.79
76726;BME280;65651;53.154;17.916;2023-02-03T06:02:39;101000.23;;;-1.45;84.68
76726;BME280;65651;53.154;17.916;2023-02-03T06:05:07;100999.50;;;-1.44;84.71
76726;BME280;65651;53.154;17.916;2023-02-03T06:07:36;101001.27;;;-1.40;84.68
76726;BME280;65651;53.154;17.916;2023-02-03T06:10:04;100992.75;;;-1.38;84.80
76726;BME280;65651;53.154;17.916;2023-02-03T06:12:33;100989.50;;;-1.37;84.68
76726;BME280;65651;53.154;17.916;2023-02-03T06:15:01;100986.48;;;-1.35;84.70
76726;BME280;65651;53.154;17.916;2023-02-03T06:17:29;100977.42;;;-1.33;84.72
76726;BME280;65651;53.154;17.916;2023-02-03T06:19:59;100973.61;;;-1.31;84.52
76726;BME280;65651;53.154;17.916;2023-02-03T06:22:27;100966.30;;;-1.28;84.73
76726;BME280;65651;53.154;17.916;2023-02-03T06:24:54;100967.46;;;-1.27;84.42
76726;BME280;65651;53.154;17.916;2023-02-03T06:27:21;100967.16;;;-1.23;84.64
76726;BME280;65651;53.154;17.916;2023-02-03T06:29:49;100959.80;;;-1.20;84.56
76726;BME280;65651;53.154;17.916;2023-02-03T06:32:20;100955.64;;;-1.18;84.58
76726;BME280;65651;53.154;17.916;2023-02-03T06:34:47;100947.46;;;-1.16;84.54
76726;BME280;65651;53.154;17.916;2023-02-03T06:37:15;100939.61;;;-1.13;84.48
76726;BME280;65651;53.154;17.916;2023-02-03T06:39:43;100933.40;;;-1.12;84.42
76726;BME280;65651;53.154;17.916;2023-02-03T06:42:11;100924.66;;;-1.09;84.59
76726;BME280;65651;53.154;17.916;2023-02-03T06:44:38;100918.72;;;-1.06;84.53
76726;BME280;65651;53.154;17.916;2023-02-03T06:47:06;100909.61;;;-1.03;84.48
76726;BME280;65651;53.154;17.916;2023-02-03T06:49:34;100905.88;;;-0.98;84.39
76726;BME280;65651;53.154;17.916;2023-02-03T06:52:01;100896.37;;;-0.95;84.60
76726;BME280;65651;53.154;17.916;2023-02-03T06:54:29;100890.09;;;-0.92;84.52
76726;BME280;65651;53.154;17.916;2023-02-03T06:56:56;100886.27;;;-0.89;84.39
76726;BME280;65651;53.154;17.916;2023-02-03T06:59:24;100881.69;;;-0.89;84.35
76726;BME280;65651;53.154;17.916;2023-02-03T07:01:51;100883.48;;;-0.86;84.30
76726;BME280;65651;53.154;17.916;2023-02-03T07:04:20;100878.14;;;-0.85;84.38
76726;BME280;65651;53.154;17.916;2023-02-03T07:06:47;100873.02;;;-0.84;84.36
76726;BME280;65651;53.154;17.916;2023-02-03T07:09:15;100863.27;;;-0.83;84.36
76726;BME280;65651;53.154;17.916;2023-02-03T07:11:43;100855.52;;;-0.83;84.30
76726;BME280;65651;53.154;17.916;2023-02-03T07:14:11;100852.00;;;-0.79;84.28
76726;BME280;65651;53.154;17.916;2023-02-03T07:16:38;100847.20;;;-0.75;84.23
76726;BME280;65651;53.154;17.916;2023-02-03T07:19:06;100840.17;;;-0.71;84.40
76726;BME280;65651;53.154;17.916;2023-02-03T07:21:33;100835.02;;;-0.66;84.25
76726;BME280;65651;53.154;17.916;2023-02-03T07:24:01;100829.05;;;-0.63;84.26
76726;BME280;65651;53.154;17.916;2023-02-03T07:26:29;100826.34;;;-0.61;83.96
76726;BME280;65651;53.154;17.916;2023-02-03T07:28:56;100818.64;;;-0.59;84.13
76726;BME280;65651;53.154;17.916;2023-02-03T07:31:26;100809.40;;;-0.57;83.98
76726;BME280;65651;53.154;17.916;2023-02-03T07:33:53;100801.42;;;-0.56;84.07
76726;BME280;65651;53.154;17.916;2023-02-03T07:36:21;100794.13;;;-0.55;84.27
76726;BME280;65651;53.154;17.916;2023-02-03T07:38:50;100786.33;;;-0.54;84.31
76726;BME280;65651;53.154;17.916;2023-02-03T07:41:17;100784.63;;;-0.56;84.34
76726;BME280;65651;53.154;17.916;2023-02-03T07:43:45;100778.29;;;-0.55;84.49
76726;BME280;65651;53.154;17.916;2023-02-03T07:46:12;100771.05;;;-0.55;84.38
76726;BME280;65651;53.154;17.916;2023-02-03T07:48:40;100764.03;;;-0.56;84.46
76726;BME280;65651;53.154;17.916;2023-02-03T07:51:07;100756.80;;;-0.56;84.70
76726;BME280;65651;53.154;17.916;2023-02-03T07:53:35;100749.75;;;-0.56;84.77
76726;BME280;65651;53.154;17.916;2023-02-03T07:56:04;100740.24;;;-0.52;84.64
76726;BME280;65651;53.154;17.916;2023-02-03T07:58:34;100735.29;;;-0.48;84.67
76726;BME280;65651;53.154;17.916;2023-02-03T08:01:12;100731.02;;;-0.44;84.71
76726;BME280;65651;53.154;17.916;2023-02-03T08:03:41;100727.04;;;-0.41;84.59
76726;BME280;65651;53.154;17.916;2023-02-03T08:06:09;100720.62;;;-0.37;84.65
76726;BME280;65651;53.154;17.916;2023-02-03T08:08:37;100713.27;;;-0.34;84.95
76726;BME280;65651;53.154;17.916;2023-02-03T08:11:05;100704.99;;;-0.31;84.99
76726;BME280;65651;53.154;17.916;2023-02-03T08:13:34;100694.55;;;-0.27;84.85
76726;BME280;65651;53.154;17.916;2023-02-03T08:16:02;100678.05;;;-0.21;84.73
76726;BME280;65651;53.154;17.916;2023-02-03T08:18:30;100668.33;;;-0.13;84.61
76726;BME280;65651;53.154;17.916;2023-02-03T08:20:57;100663.14;;;-0.08;84.77
76726;BME280;65651;53.154;17.916;2023-02-03T08:23:25;100650.90;;;-0.04;84.78
76726;BME280;65651;53.154;17.916;2023-02-03T08:25:55;100641.51;;;0.01;84.65
76726;BME280;65651;53.154;17.916;2023-02-03T08:28:26;100633.52;;;0.09;84.97
76726;BME280;65651;53.154;17.916;2023-02-03T08:30:53;100623.45;;;0.16;84.95
76726;BME280;65651;53.154;17.916;2023-02-03T08:33:22;100614.89;;;0.21;84.99
76726;BME280;65651;53.154;17.916;2023-02-03T08:35:50;100603.14;;;0.22;84.66
76726;BME280;65651;53.154;17.916;2023-02-03T08:38:17;100601.66;;;0.23;84.86
76726;BME280;65651;53.154;17.916;2023-02-03T08:40:46;100593.89;;;0.24;84.95
76726;BME280;65651;53.154;17.916;2023-02-03T08:43:13;100583.85;;;0.27;84.92
76726;BME280;65651;53.154;17.916;2023-02-03T08:45:40;100575.17;;;0.31;84.92
76726;BME280;65651;53.154;17.916;2023-02-03T08:48:12;100567.27;;;0.33;85.04
76726;BME280;65651;53.154;17.916;2023-02-03T08:50:41;100560.31;;;0.35;85.19
76726;BME280;65651;53.154;17.916;2023-02-03T08:53:09;100549.08;;;0.36;84.99
76726;BME280;65651;53.154;17.916;2023-02-03T08:55:39;100541.48;;;0.37;84.82
76726;BME280;65651;53.154;17.916;2023-02-03T08:58:07;100534.52;;;0.38;85.09
76726;BME280;65651;53.154;17.916;2023-02-03T09:00:34;100524.83;;;0.41;84.99
76726;BME280;65651;53.154;17.916;2023-02-03T09:03:01;100520.23;;;0.44;85.06
76726;BME280;65651;53.154;17.916;2023-02-03T09:05:30;100506.15;;;0.47;84.96
76726;BME280;65651;53.154;17.916;2023-02-03T09:07:58;100494.48;;;0.50;84.96
76726;BME280;65651;53.154;17.916;2023-02-03T09:10:25;100481.87;;;0.51;84.99
76726;BME280;65651;53.154;17.916;2023-02-03T09:12:52;100470.02;;;0.52;84.87
76726;BME280;65651;53.154;17.916;2023-02-03T09:15:20;100464.69;;;0.52;85.07
76726;BME280;65651;53.154;17.916;2023-02-03T09:17:47;100458.09;;;0.53;84.93
76726;BME280;65651;53.154;17.916;2023-02-03T09:20:15;100452.52;;;0.55;84.95
76726;BME280;65651;53.154;17.916;2023-02-03T09:22:42;100443.56;;;0.54;84.87
76726;BME280;65651;53.154;17.916;2023-02-03T09:25:10;100431.86;;;0.52;84.99
76726;BME280;65651;53.154;17.916;2023-02-03T09:27:37;100426.67;;;0.53;84.88
76726;BME280;65651;53.154;17.916;2023-02-03T09:30:05;100415.05;;;0.53;85.00
76726;BME280;65651;53.154;17.916;2023-02-03T09:32:33;100410.19;;;0.51;84.99
76726;BME280;65651;53.154;17.916;2023-02-03T09:35:00;100404.42;;;0.50;85.01
76726;BME280;65651;53.154;17.916;2023-02-03T09:37:30;100389.05;;;0.51;85.10
76726;BME280;65651;53.154;17.916;2023-02-03T09:39:58;100385.79;;;0.52;85.18
76726;BME280;65651;53.154;17.916;2023-02-03T09:45:22;100371.89;;;0.54;85.14
76726;BME280;65651;53.154;17.916;2023-02-03T09:47:52;100362.41;;;0.50;85.22
76726;BME280;65651;53.154;17.916;2023-02-03T09:50:27;100351.84;;;0.46;85.20
76726;BME280;65651;53.154;17.916;2023-02-03T09:52:57;100344.38;;;0.41;85.35
76726;BME280;65651;53.154;17.916;2023-02-03T09:55:40;100337.02;;;0.37;85.40
76726;BME280;65651;53.154;17.916;2023-02-03T09:58:15;100325.79;;;0.33;85.66
76726;BME280;65651;53.154;17.916;2023-02-03T10:01:02;100308.74;;;0.32;85.58
76726;BME280;65651;53.154;17.916;2023-02-03T10:07:27;100281.73;;;0.22;85.55
76726;BME280;65651;53.154;17.916;2023-02-03T10:10:16;100271.42;;;0.21;85.69
76726;BME280;65651;53.154;17.916;2023-02-03T10:18:54;100239.27;;;0.24;85.78
76726;BME280;65651;53.154;17.916;2023-02-03T10:24:02;100217.84;;;0.22;86.19
76726;BME280;65651;53.154;17.916;2023-02-03T10:26:30;100205.56;;;0.24;86.14
76726;BME280;65651;53.154;17.916;2023-02-03T10:29:04;100196.09;;;0.29;86.09
76726;BME280;65651;53.154;17.916;2023-02-03T10:31:35;100184.40;;;0.33;86.24
76726;BME280;65651;53.154;17.916;2023-02-03T10:34:12;100176.23;;;0.37;86.35
76726;BME280;65651;53.154;17.916;2023-02-03T10:41:55;100149.74;;;0.51;86.61
76726;BME280;65651;53.154;17.916;2023-02-03T10:44:32;100140.10;;;0.53;86.63
76726;BME280;65651;53.154;17.916;2023-02-03T10:47:28;100133.31;;;0.54;86.74
76726;BME280;65651;53.154;17.916;2023-02-03T10:50:08;100117.59;;;0.51;86.86
76726;BME280;65651;53.154;17.916;2023-02-03T10:52:41;100104.13;;;0.49;87.22
76726;BME280;65651;53.154;17.916;2023-02-03T10:57:49;100087.99;;;0.47;87.84
76726;BME280;65651;53.154;17.916;2023-02-03T11:03:36;100067.46;;;0.43;87.97
76726;BME280;65651;53.154;17.916;2023-02-03T11:05:43;100055.67;;;0.42;87.81
76726;BME280;65651;53.154;17.916;2023-02-03T11:08:15;100047.64;;;0.41;87.91
76726;BME280;65651;53.154;17.916;2023-02-03T11:10:43;100032.66;;;0.40;88.04
76726;BME280;65651;53.154;17.916;2023-02-03T11:13:25;100024.52;;;0.41;87.95
76726;BME280;65651;53.154;17.916;2023-02-03T11:15:59;100012.98;;;0.39;87.97
76726;BME280;65651;53.154;17.916;2023-02-03T11:18:43;100000.27;;;0.39;87.94
76726;BME280;65651;53.154;17.916;2023-02-03T11:21:31;99987.41;;;0.38;87.83
76726;BME280;65651;53.154;17.916;2023-02-03T11:26:46;99961.06;;;0.39;88.11
76726;BME280;65651;53.154;17.916;2023-02-03T11:29:36;99955.29;;;0.38;88.24
76726;BME280;65651;53.154;17.916;2023-02-03T11:34:48;99944.02;;;0.32;88.20
76726;BME280;65651;53.154;17.916;2023-02-03T11:37:35;99932.25;;;0.29;88.49
76726;BME280;65651;53.154;17.916;2023-02-03T11:42:37;99922.48;;;0.21;88.62
76726;BME280;65651;53.154;17.916;2023-02-03T11:45:26;99908.98;;;0.17;88.89
76726;BME280;65651;53.154;17.916;2023-02-03T11:48:14;99903.83;;;0.17;88.71
76726;BME280;65651;53.154;17.916;2023-02-03T11:59:23;99863.69;;;0.19;89.01
76726;BME280;65651;53.154;17.916;2023-02-03T12:11:31;99843.80;;;0.32;88.92
76726;BME280;65651;53.154;17.916;2023-02-03T12:17:18;99832.11;;;0.40;88.90
76726;BME280;65651;53.154;17.916;2023-02-03T12:23:15;99813.96;;;0.45;88.87
76726;BME280;65651;53.154;17.916;2023-02-03T12:26:18;99803.27;;;0.49;88.97
76726;BME280;65651;53.154;17.916;2023-02-03T12:29:11;99794.48;;;0.54;89.04
76726;BME280;65651;53.154;17.916;2023-02-03T12:34:52;99782.73;;;0.58;88.75
76726;BME280;65651;53.154;17.916;2023-02-03T12:37:46;99776.16;;;0.56;88.73
76726;BME280;65651;53.154;17.916;2023-02-03T12:42:53;99767.29;;;0.59;88.58
76726;BME280;65651;53.154;17.916;2023-02-03T12:45:29;99762.90;;;0.62;88.56
76726;BME280;65651;53.154;17.916;2023-02-03T12:48:22;99764.61;;;0.57;88.53
76726;BME280;65651;53.154;17.916;2023-02-03T12:50:58;99762.70;;;0.49;88.61
76726;BME280;65651;53.154;17.916;2023-02-03T12:53:32;99754.47;;;0.45;88.55
76726;BME280;65651;53.154;17.916;2023-02-03T12:56:15;99749.93;;;0.47;88.46
76726;BME280;65651;53.154;17.916;2023-02-03T12:59:02;99745.02;;;0.44;88.56
76726;BME280;65651;53.154;17.916;2023-02-03T13:02:02;99746.36;;;0.42;88.37
76726;BME280;65651;53.154;17.916;2023-02-03T13:04:42;99744.32;;;0.44;88.25
76726;BME280;65651;53.154;17.916;2023-02-03T13:07:16;99738.85;;;0.44;88.58
76726;BME280;65651;53.154;17.916;2023-02-03T13:10:30;99737.27;;;0.49;88.23
76726;BME280;65651;53.154;17.916;2023-02-03T13:12:56;99728.42;;;0.57;88.48
76726;BME280;65651;53.154;17.916;2023-02-03T13:15:37;99727.87;;;0.60;88.44
76726;BME280;65651;53.154;17.916;2023-02-03T13:18:30;99720.23;;;0.63;88.26
76726;BME280;65651;53.154;17.916;2023-02-03T13:20:59;99714.23;;;0.68;88.25
76726;BME280;65651;53.154;17.916;2023-02-03T13:23:27;99712.98;;;0.71;88.22
76726;BME280;65651;53.154;17.916;2023-02-03T13:32:01;99697.61;;;0.86;88.19
76726;BME280;65651;53.154;17.916;2023-02-03T13:37:09;99695.09;;;1.00;88.20
76726;BME280;65651;53.154;17.916;2023-02-03T13:42:31;99694.30;;;1.13;87.97
76726;BME280;65651;53.154;17.916;2023-02-03T13:45:19;99694.17;;;1.15;87.70
76726;BME280;65651;53.154;17.916;2023-02-03T13:47:52;99690.28;;;1.15;87.78
76726;BME280;65651;53.154;17.916;2023-02-03T13:50:22;99686.27;;;1.17;87.78
76726;BME280;65651;53.154;17.916;2023-02-03T13:56:01;99686.42;;;1.20;87.75
76726;BME280;65651;53.154;17.916;2023-02-03T13:58:32;99687.77;;;1.20;87.52
76726;BME280;65651;53.154;17.916;2023-02-03T14:01:34;99688.09;;;1.21;87.56
76726;BME280;65651;53.154;17.916;2023-02-03T14:04:08;99688.08;;;1.26;87.35
76726;BME280;65651;53.154;17.916;2023-02-03T14:09:38;99685.02;;;1.34;87.37
76726;BME280;65651;53.154;17.916;2023-02-03T14:14:54;99685.55;;;1.44;87.34
76726;BME280;65651;53.154;17.916;2023-02-03T14:20:02;99686.34;;;1.48;87.40
76726;BME280;65651;53.154;17.916;2023-02-03T14:22:30;99687.74;;;1.48;87.41
76726;BME280;65651;53.154;17.916;2023-02-03T14:25:04;99688.17;;;1.49;87.30
76726;BME280;65651;53.154;17.916;2023-02-03T14:27:33;99688.60;;;1.48;87.29
76726;BME280;65651;53.154;17.916;2023-02-03T14:32:50;99694.00;;;1.42;87.21
76726;BME280;65651;53.154;17.916;2023-02-03T14:35:27;99696.76;;;1.36;87.10
76726;BME280;65651;53.154;17.916;2023-02-03T14:38:16;99701.31;;;1.31;87.18
76726;BME280;65651;53.154;17.916;2023-02-03T14:40:54;99702.17;;;1.26;87.19
76726;BME280;65651;53.154;17.916;2023-02-03T14:57:48;99721.95;;;1.15;87.41
76726;BME280;65651;53.154;17.916;2023-02-03T15:05:43;99728.43;;;1.13;87.60
76726;BME280;65651;53.154;17.916;2023-02-03T15:08:47;99733.25;;;1.15;87.76
76726;BME280;65651;53.154;17.916;2023-02-03T15:11:20;99735.52;;;1.16;87.62
76726;BME280;65651;53.154;17.916;2023-02-03T15:13:49;99738.89;;;1.18;87.63
76726;BME280;65651;53.154;17.916;2023-02-03T15:16:22;99740.82;;;1.20;87.54
76726;BME280;65651;53.154;17.916;2023-02-03T15:18:58;99747.63;;;1.24;87.81
76726;BME280;65651;53.154;17.916;2023-02-03T15:21:26;99746.01;;;1.29;87.80
76726;BME280;65651;53.154;17.916;2023-02-03T15:23:53;99746.31;;;1.35;87.83
76726;BME280;65651;53.154;17.916;2023-02-03T15:26:25;99743.77;;;1.41;87.77